createdAt,value
2022-08-02T00:03:19.561Z,19.76
2022-08-02T00:08:19.488Z,19.79
2022-08-02T00:13:19.438Z,19.48
2022-08-02T00:18:19.377Z,19.42
2022-08-02T00:23:19.558Z,19.31
2022-08-02T00:28:26.920Z,19.02
2022-08-02T00:34:27.175Z,18.86
2022-08-02T00:38:20.090Z,19.08
2022-08-02T00:43:19.022Z,18.79
2022-08-02T00:48:18.974Z,18.84
2022-08-02T00:53:18.915Z,18.95
2022-08-02T00:58:18.854Z,18.57
2022-08-02T01:03:18.771Z,18.57
2022-08-02T01:13:04.600Z,18.49
2022-08-02T01:18:04.511Z,18.31
2022-08-02T01:23:04.445Z,18.19
2022-08-02T01:28:04.391Z,18.34
2022-08-02T01:33:04.321Z,18.24
2022-08-02T01:38:04.261Z,18.58
2022-08-02T01:43:04.760Z,18.97
2022-08-02T01:48:04.144Z,18.68
2022-08-02T01:53:04.054Z,17.95
2022-08-02T01:58:03.994Z,17.97
2022-08-02T02:03:03.925Z,17.95
2022-08-02T02:08:03.875Z,17.63
2022-08-02T02:13:03.803Z,17.50
2022-08-02T02:18:13.115Z,17.54
2022-08-02T02:23:04.676Z,17.44
2022-08-02T02:28:03.758Z,17.40
2022-08-02T02:33:03.689Z,17.57
2022-08-02T02:38:03.475Z,17.92
2022-08-02T02:43:03.389Z,17.62
2022-08-02T02:48:03.329Z,17.50
2022-08-02T02:53:03.281Z,18.15
2022-08-02T02:58:03.217Z,18.28
2022-08-02T03:03:04.330Z,17.88
2022-08-02T03:08:03.073Z,17.76
2022-08-02T03:13:02.990Z,17.78
2022-08-02T03:18:02.923Z,17.26
2022-08-02T03:23:02.851Z,17.07
2022-08-02T03:28:02.797Z,17.18
2022-08-02T03:33:02.731Z,17.18
2022-08-02T03:38:02.842Z,17.30
2022-08-02T03:43:02.613Z,17.33
2022-08-02T03:48:02.536Z,17.33
2022-08-02T03:53:03.497Z,17.35
2022-08-02T03:58:02.432Z,17.43
2022-08-02T04:03:02.325Z,17.50
2022-08-02T04:08:34.080Z,17.64
2022-08-02T04:13:03.202Z,17.87
2022-08-02T04:18:02.132Z,18.10
2022-08-02T04:23:02.076Z,18.42
2022-08-02T04:28:17.379Z,18.40
2022-08-02T04:33:02.995Z,18.67
2022-08-02T04:38:08.816Z,19.18
2022-08-02T04:43:02.825Z,18.86
2022-08-02T04:48:04.916Z,18.86
2022-08-02T04:53:01.712Z,18.83
2022-08-02T04:58:04.076Z,18.99
2022-08-02T05:03:02.564Z,19.58
2022-08-02T05:08:01.503Z,22.32
2022-08-02T05:13:01.411Z,23.85
2022-08-02T05:18:01.349Z,25.87
2022-08-02T05:23:01.312Z,26.81
2022-08-02T05:28:01.214Z,27.17
2022-08-02T05:33:01.149Z,27.92
2022-08-02T05:38:01.099Z,28.43
2022-08-02T05:43:01.050Z,27.99
2022-08-02T05:48:01.162Z,26.15
2022-08-02T05:53:00.907Z,24.83
2022-08-02T05:58:00.854Z,23.95
2022-08-02T06:03:00.776Z,23.42
2022-08-02T06:08:00.704Z,22.77
2022-08-02T06:13:00.634Z,26.09
2022-08-02T06:18:00.588Z,27.96
2022-08-02T06:23:00.600Z,28.58
2022-08-02T06:28:00.502Z,29.44
2022-08-02T06:33:00.464Z,30.34
2022-08-02T06:38:02.214Z,31.61
2022-08-02T06:43:00.293Z,31.33
2022-08-02T06:48:00.230Z,29.63
2022-08-02T06:53:00.199Z,29.20
2022-08-02T06:58:00.115Z,28.44
2022-08-02T07:03:00.026Z,29.70
2022-08-02T07:07:59.966Z,29.08
2022-08-02T07:13:00.111Z,30.89
2022-08-02T07:17:59.891Z,31.85
2022-08-02T07:22:59.849Z,32.18
2022-08-02T07:27:59.732Z,32.27
2022-08-02T07:32:59.692Z,32.14
2022-08-02T07:38:02.217Z,32.05
2022-08-02T07:43:03.895Z,31.23
2022-08-02T07:47:59.491Z,29.97
2022-08-02T07:52:59.444Z,29.90
2022-08-02T07:57:59.837Z,30.57
2022-08-02T08:02:59.397Z,31.15
2022-08-02T08:07:59.319Z,31.65
2022-08-02T08:12:59.251Z,31.38
2022-08-02T08:17:59.180Z,31.58
2022-08-02T08:22:59.062Z,32.00
2022-08-02T08:27:59.012Z,32.14
2022-08-02T08:32:58.974Z,32.10
2022-08-02T08:37:58.917Z,32.40
2022-08-02T08:42:58.857Z,32.59
2022-08-02T08:47:58.775Z,31.72
2022-08-02T08:52:58.708Z,31.76
2022-08-02T08:57:58.649Z,31.58
2022-08-02T09:02:58.766Z,31.09
2022-08-02T09:07:58.813Z,30.83
2022-08-02T09:12:58.476Z,31.02
2022-08-02T09:17:58.399Z,30.52
2022-08-02T09:22:58.339Z,30.45
2022-08-02T09:27:58.289Z,29.74
2022-08-02T09:32:58.219Z,29.75
2022-08-02T09:37:59.181Z,30.14
2022-08-02T09:42:58.081Z,30.33
2022-08-02T09:47:58.023Z,29.82
2022-08-02T09:52:57.994Z,30.23
2022-08-02T09:57:57.906Z,29.10
2022-08-02T10:02:57.847Z,29.04
2022-08-02T10:07:57.983Z,29.19
2022-08-02T10:12:57.698Z,29.71
2022-08-02T10:17:57.704Z,30.15
2022-08-02T10:22:57.600Z,30.45
2022-08-02T10:28:05.135Z,30.38
2022-08-02T10:32:58.452Z,30.81
2022-08-02T10:37:57.435Z,31.05
2022-08-02T10:42:57.353Z,30.94
2022-08-02T10:47:57.264Z,30.64
2022-08-02T10:52:57.214Z,29.79
2022-08-02T10:57:57.126Z,29.34
2022-08-02T11:02:57.057Z,29.56
2022-08-02T11:07:57.049Z,29.66
2022-08-02T11:12:56.983Z,30.16
2022-08-02T11:17:56.910Z,29.74
2022-08-02T11:22:56.852Z,30.07
2022-08-02T11:27:57.012Z,29.81
2022-08-02T11:32:56.706Z,29.41
2022-08-02T11:37:56.622Z,30.36
2022-08-02T11:42:56.556Z,30.43
2022-08-02T11:47:56.491Z,30.52
2022-08-02T11:52:56.450Z,29.97
2022-08-02T11:58:01.720Z,30.21
2022-08-02T12:02:57.402Z,29.87
2022-08-02T12:07:56.239Z,30.21
2022-08-02T12:12:56.180Z,30.46
2022-08-02T12:17:56.294Z,30.05
2022-08-02T12:22:56.053Z,29.72
2022-08-02T12:27:56.015Z,29.84
2022-08-02T12:32:55.937Z,29.94
2022-08-02T12:37:55.907Z,30.08
2022-08-02T12:42:55.827Z,29.81
2022-08-02T12:47:55.727Z,29.96
2022-08-02T12:52:55.661Z,30.07
2022-08-02T12:57:55.601Z,30.29
2022-08-02T13:02:55.541Z,29.97
2022-08-02T13:07:55.483Z,30.07
2022-08-02T13:12:55.440Z,30.40
2022-08-02T13:17:55.345Z,30.46
2022-08-02T13:22:55.447Z,30.33
2022-08-02T13:27:56.230Z,30.38
2022-08-02T13:32:59.184Z,30.26
2022-08-02T13:37:56.121Z,30.33
2022-08-02T13:42:55.033Z,30.37
2022-08-02T13:48:03.785Z,29.84
2022-08-02T13:52:55.907Z,29.50
2022-08-02T13:57:54.849Z,29.71
2022-08-02T14:02:54.774Z,29.79
2022-08-02T14:07:54.756Z,29.72
2022-08-02T14:12:56.453Z,29.68
2022-08-02T14:17:54.595Z,29.62
2022-08-02T14:22:54.817Z,29.63
2022-08-02T14:27:54.520Z,29.63
2022-08-02T14:32:54.391Z,29.63
2022-08-02T14:37:54.332Z,29.68
2022-08-02T14:42:54.285Z,29.90
2022-08-02T14:47:54.217Z,30.54
2022-08-02T14:52:54.135Z,30.96
2022-08-02T14:57:54.088Z,30.62
2022-08-02T15:02:54.016Z,30.37
2022-08-02T15:07:53.979Z,29.90
2022-08-02T15:12:53.893Z,29.75
2022-08-02T15:17:53.862Z,30.07
2022-08-02T15:22:53.762Z,30.34
2022-08-02T15:27:53.692Z,30.27
2022-08-02T15:32:53.913Z,30.46
2022-08-02T15:37:53.576Z,30.37
2022-08-02T15:42:53.507Z,30.50
2022-08-02T15:47:53.478Z,30.36
2022-08-02T15:52:53.367Z,30.24
2022-08-02T15:57:53.330Z,29.57
2022-08-02T16:02:53.266Z,29.28
2022-08-02T16:07:53.221Z,29.34
2022-08-02T16:12:53.166Z,29.18
2022-08-02T16:17:54.410Z,29.00
2022-08-02T16:22:53.143Z,28.91
2022-08-02T16:27:59.402Z,28.72
2022-08-02T16:32:53.875Z,28.60
2022-08-02T16:37:53.026Z,28.62
2022-08-02T16:42:52.769Z,28.72
2022-08-02T16:47:56.551Z,28.77
2022-08-02T16:52:53.646Z,28.75
2022-08-02T16:57:52.572Z,28.69
2022-08-02T17:02:52.533Z,28.72
2022-08-02T17:08:15.167Z,28.63
2022-08-02T17:12:53.365Z,28.60
2022-08-02T17:17:52.355Z,28.62
2022-08-02T17:22:52.236Z,28.51
2022-08-02T17:27:55.690Z,28.46
2022-08-02T17:32:52.148Z,28.32
2022-08-02T17:37:54.790Z,28.17
2022-08-02T17:42:53.180Z,28.06
2022-08-02T17:48:03.753Z,28.01
2022-08-02T17:52:53.300Z,27.96
2022-08-02T17:57:58.286Z,27.89
2022-08-02T18:02:55.524Z,27.74
2022-08-02T18:07:56.709Z,27.53
2022-08-02T18:12:52.686Z,27.43
2022-08-02T18:17:51.556Z,27.38
2022-08-02T18:22:55.748Z,27.33
2022-08-02T18:27:52.440Z,27.24
2022-08-02T18:33:58.191Z,27.33
2022-08-02T18:37:57.253Z,27.20
2022-08-02T18:42:52.242Z,27.02
2022-08-02T18:47:51.432Z,26.86
2022-08-02T18:52:51.110Z,26.64
2022-08-02T18:58:18.039Z,26.54
2022-08-02T19:02:51.962Z,26.29
2022-08-02T19:07:52.895Z,26.12
2022-08-02T19:12:51.626Z,25.93
2022-08-02T19:17:54.865Z,25.71
2022-08-02T19:22:53.542Z,25.52
2022-08-02T19:27:50.689Z,25.39
2022-08-02T19:32:59.461Z,25.28
2022-08-02T19:37:51.574Z,25.25
2022-08-02T19:44:23.315Z,25.19
2022-08-02T19:47:54.465Z,25.17
2022-08-02T19:52:52.892Z,25.16
2022-08-02T19:57:50.274Z,25.13
2022-08-02T20:02:50.284Z,25.10
2022-08-02T20:07:56.045Z,25.17
2022-08-02T20:12:51.075Z,25.19
2022-08-02T20:17:50.087Z,24.91
2022-08-02T20:22:49.948Z,24.76
2022-08-02T20:27:51.220Z,24.57
2022-08-02T20:32:53.066Z,24.54
2022-08-02T20:37:59.926Z,24.47
2022-08-02T20:42:50.677Z,24.41
2022-08-02T20:47:51.103Z,24.53
2022-08-02T20:52:49.871Z,24.49
2022-08-02T20:58:00.872Z,24.64
2022-08-02T21:02:50.517Z,24.61
2022-08-02T21:07:53.431Z,24.64
2022-08-02T21:12:50.268Z,24.85
2022-08-02T21:17:53.473Z,24.10
2022-08-02T21:22:50.135Z,23.80
2022-08-02T21:27:53.412Z,23.64
2022-08-02T21:32:49.002Z,24.01
2022-08-02T21:37:48.946Z,24.26
2022-08-02T21:42:49.869Z,23.79
2022-08-02T21:47:48.801Z,23.72
2022-08-02T21:52:52.417Z,23.49
2022-08-02T21:57:48.831Z,23.17
2022-08-02T22:02:48.693Z,23.02
2022-08-02T22:07:48.555Z,23.23
2022-08-02T22:12:48.467Z,23.65
2022-08-02T22:17:53.541Z,23.67
2022-08-02T22:22:50.384Z,23.50
2022-08-02T22:28:15.793Z,22.93
2022-08-02T22:32:49.218Z,22.72
2022-08-02T22:38:16.536Z,22.68
2022-08-02T22:42:49.097Z,22.38
2022-08-02T22:47:51.166Z,22.65
2022-08-02T22:52:50.454Z,22.20
2022-08-02T23:02:49.032Z,22.68
2022-08-02T23:07:47.762Z,22.62
2022-08-02T23:12:47.712Z,22.39
2022-08-02T23:17:47.633Z,22.13
2022-08-02T23:22:47.581Z,22.31
2022-08-02T23:27:50.280Z,22.43
2022-08-02T23:32:47.640Z,21.67
2022-08-02T23:37:59.760Z,21.61
2022-08-02T23:42:48.305Z,21.83
2022-08-02T23:47:47.278Z,21.63
2022-08-02T23:52:47.196Z,21.39
2022-08-02T23:57:47.106Z,20.77
